Time;durP1;ratioP1;P1;durP2;ratioP2;P2;SDS_P1;SDS_P2;PMS_P1;PMS_P2;Temp;Humidity;BMP_temperature;BMP_pressure;BME280_temperature;BME280_humidity;BME280_pressure;Samples;Min_cycle;Max_cycle;Signal;HPM_P1;HPM_P2
2021/03/01 00:00:42;;;;;;;103.20;57.08;;;4.40;92.90;;;;;;6160162;23;20055;-71
2021/03/01 00:03:08;;;;;;;90.47;54.25;;;4.40;92.70;;;;;;6187100;23;20032;-68
2021/03/01 00:05:34;;;;;;;93.82;56.75;;;4.30;92.60;;;;;;6186844;23;20001;-66
2021/03/01 00:08:00;;;;;;;180.70;82.18;;;4.30;92.70;;;;;;6186383;23;20033;-76
2021/03/01 00:10:26;;;;;;;135.20;74.05;;;4.20;92.90;;;;;;6186378;23;20035;-77
2021/03/01 00:12:53;;;;;;;98.65;59.75;;;4.30;93.10;;;;;;6186643;23;20001;-76
2021/03/01 00:15:21;;;;;;;93.45;55.78;;;4.30;92.90;;;;;;6186789;23;20083;-75
2021/03/01 00:17:47;;;;;;;97.53;56.08;;;4.30;92.80;;;;;;6186576;23;20052;-68
2021/03/01 00:20:15;;;;;;;97.82;57.60;;;4.30;93.00;;;;;;6186452;23;20304;-67
2021/03/01 00:22:42;;;;;;;104.63;57.90;;;4.40;92.80;;;;;;6186556;23;20001;-67
2021/03/01 00:25:09;;;;;;;80.85;48.35;;;4.30;92.80;;;;;;6160001;23;20016;-66
2021/03/01 00:27:35;;;;;;;79.22;45.75;;;4.30;92.50;;;;;;6186252;23;20051;-66
2021/03/01 00:30:02;;;;;;;81.20;47.08;;;4.20;92.70;;;;;;6186793;23;20024;-77
2021/03/01 00:32:28;;;;;;;83.82;47.85;;;4.00;93.10;;;;;;6186500;23;20324;-67
2021/03/01 00:34:54;;;;;;;81.38;44.50;;;3.90;93.20;;;;;;6186378;23;20301;-66
2021/03/01 00:37:19;;;;;;;79.80;45.67;;;4.10;93.20;;;;;;6186281;23;20012;-66
2021/03/01 00:39:45;;;;;;;87.38;47.83;;;4.10;93.10;;;;;;6186327;23;20001;-75
2021/03/01 00:42:11;;;;;;;88.15;48.40;;;4.10;93.10;;;;;;6186571;23;20024;-77
2021/03/01 00:44:37;;;;;;;90.88;51.22;;;4.10;92.90;;;;;;6159500;23;20088;-76
2021/03/01 00:47:03;;;;;;;89.05;49.58;;;4.20;93.20;;;;;;6186272;23;20008;-77
2021/03/01 00:49:29;;;;;;;83.80;47.53;;;4.10;93.00;;;;;;6186398;23;20332;-77
2021/03/01 00:51:55;;;;;;;85.47;49.35;;;4.10;93.00;;;;;;6186027;23;20008;-77
2021/03/01 00:54:21;;;;;;;85.20;46.88;;;4.10;92.80;;;;;;6186494;23;19996;-67
2021/03/01 00:56:47;;;;;;;88.40;49.30;;;4.10;93.00;;;;;;6186150;23;20416;-76
2021/03/01 00:59:13;;;;;;;79.10;44.83;;;4.10;93.00;;;;;;6186425;23;20059;-76
2021/03/01 01:01:39;;;;;;;81.47;46.08;;;4.10;92.90;;;;;;6186010;23;20001;-77
2021/03/01 01:04:05;;;;;;;77.25;44.42;;;4.00;92.90;;;;;;6186026;23;20001;-66
2021/03/01 01:06:32;;;;;;;77.60;43.25;;;4.00;93.10;;;;;;6186218;23;20432;-76
2021/03/01 01:08:58;;;;;;;77.57;42.67;;;;;;;;;;6185904;23;20332;-77
2021/03/01 01:11:27;;;;;;;75.07;42.13;;;3.80;92.60;;;;;;6185959;23;20005;-68
2021/03/01 01:13:53;;;;;;;77.70;43.08;;;3.80;93.00;;;;;;6186257;23;20005;-68
2021/03/01 01:16:19;;;;;;;72.63;41.72;;;3.70;93.50;;;;;;6186156;23;19997;-69
2021/03/01 01:18:45;;;;;;;71.53;40.92;;;3.60;93.60;;;;;;6186225;23;20059;-77
2021/03/01 01:21:11;;;;;;;78.03;41.78;;;3.50;93.70;;;;;;6186295;23;20016;-76
2021/03/01 01:23:37;;;;;;;68.72;39.38;;;3.50;93.80;;;;;;6186264;23;20001;-77
2021/03/01 01:26:03;;;;;;;71.57;39.20;;;3.50;93.70;;;;;;6186302;23;20036;-77
2021/03/01 01:28:29;;;;;;;67.35;39.47;;;3.30;94.10;;;;;;6159691;23;20001;-66
2021/03/01 01:30:55;;;;;;;65.70;39.50;;;3.40;94.00;;;;;;6185980;23;20076;-74
2021/03/01 01:33:21;;;;;;;62.47;37.53;;;3.50;93.90;;;;;;6159684;23;20009;-70
2021/03/01 01:35:47;;;;;;;93.63;50.03;;;3.50;93.90;;;;;;6185850;23;20007;-76
2021/03/01 01:38:12;;;;;;;90.22;50.10;;;3.60;93.90;;;;;;6159380;23;20032;-68
2021/03/01 01:40:38;;;;;;;98.78;52.35;;;3.60;93.70;;;;;;6159668;23;20336;-77
2021/03/01 01:43:06;;;;;;;104.93;57.25;;;3.70;93.70;;;;;;6185807;23;20315;-66
2021/03/01 01:45:32;;;;;;;92.65;51.42;;;3.70;93.10;;;;;;6185914;23;20075;-77
2021/03/01 01:47:58;;;;;;;72.78;43.13;;;3.70;93.30;;;;;;6186078;23;20324;-67
2021/03/01 01:50:26;;;;;;;70.95;42.88;;;3.70;93.30;;;;;;6159602;23;20009;-66
2021/03/01 01:52:54;;;;;;;64.07;38.22;;;3.50;93.80;;;;;;6185962;23;20504;-77
2021/03/01 01:55:21;;;;;;;61.17;38.60;;;3.60;93.30;;;;;;6186094;23;20352;-77
2021/03/01 01:57:47;;;;;;;83.18;49.20;;;3.50;93.80;;;;;;6187879;23;20005;-77
2021/03/01 02:00:46;;;;;;;93.03;52.83;;;3.50;93.90;;;;;;6187654;23;20049;-66
2021/03/01 02:03:48;;;;;;;129.38;64.30;;;3.60;93.50;;;;;;6187768;23;20001;-70
2021/03/01 02:06:14;;;;;;;79.95;43.42;;;3.50;94.10;;;;;;6067602;23;20479;-67
2021/03/01 02:09:19;;;;;;;153.20;71.72;;;3.40;93.70;;;;;;6067589;23;20011;-67
2021/03/01 02:12:07;;;;;;;146.88;68.03;;;3.50;93.90;;;;;;6068363;23;20113;-67
2021/03/01 02:14:39;;;;;;;121.78;59.45;;;3.50;93.80;;;;;;6067978;23;20014;-77
2021/03/01 02:17:05;;;;;;;68.43;41.25;;;3.60;93.90;;;;;;6067969;23;20010;-68
2021/03/01 02:19:34;;;;;;;165.07;77.15;;;3.60;93.50;;;;;;6067947;23;20011;-73
2021/03/01 02:22:00;;;;;;;174.52;80.50;;;3.60;93.20;;;;;;6068627;23;20026;-77
2021/03/01 02:24:47;;;;;;;126.50;66.60;;;3.60;93.40;;;;;;6067783;23;20011;-67
2021/03/01 02:27:18;;;;;;;62.05;39.05;;;3.60;93.50;;;;;;6043822;23;20039;-77
2021/03/01 02:29:46;;;;;;;122.40;69.72;;;3.50;93.90;;;;;;6067857;23;20032;-77
2021/03/01 02:32:14;;;;;;;246.13;102.22;;;3.40;93.80;;;;;;6068017;23;20081;-76
2021/03/01 02:34:42;;;;;;;79.78;46.85;;;3.40;94.00;;;;;;6067657;23;20015;-68
2021/03/01 02:37:13;;;;;;;91.15;47.90;;;3.10;94.40;;;;;;6067844;23;20036;-76
2021/03/01 02:39:43;;;;;;;91.43;49.33;;;3.30;94.40;;;;;;6067907;23;20513;-67
2021/03/01 02:42:11;;;;;;;54.13;33.58;;;3.20;94.50;;;;;;6148632;23;20084;-75
2021/03/01 02:44:39;;;;;;;45.92;29.73;;;3.00;94.70;;;;;;6187430;23;20032;-76
2021/03/01 02:47:05;;;;;;;47.45;29.10;;;3.10;94.90;;;;;;6187321;23;20008;-66
2021/03/01 02:49:33;;;;;;;44.05;28.02;;;3.00;95.00;;;;;;6187634;23;20005;-67
2021/03/01 02:52:01;;;;;;;41.42;25.42;;;3.00;94.90;;;;;;6188065;23;20001;-66
2021/03/01 02:54:29;;;;;;;42.83;24.70;;;3.00;95.00;;;;;;6188236;23;20001;-66
2021/03/01 02:56:57;;;;;;;43.65;25.40;;;3.00;94.70;;;;;;6187461;23;20005;-75
2021/03/01 02:59:24;;;;;;;44.47;24.17;;;3.00;94.80;;;;;;6187246;23;20066;-66
2021/03/01 03:01:51;;;;;;;60.00;28.17;;;2.90;95.00;;;;;;6187224;23;20450;-70
2021/03/01 03:04:19;;;;;;;53.70;27.65;;;2.80;95.00;;;;;;6187306;23;20328;-76
2021/03/01 03:06:46;;;;;;;50.47;25.75;;;2.80;95.30;;;;;;6187052;23;20012;-66
2021/03/01 03:09:13;;;;;;;46.97;24.60;;;2.70;95.40;;;;;;6187235;23;20001;-66
2021/03/01 03:11:43;;;;;;;47.35;26.90;;;2.70;95.40;;;;;;6187273;23;20008;-76
2021/03/01 03:14:11;;;;;;;44.22;25.95;;;2.70;95.60;;;;;;6187172;23;20005;-66
2021/03/01 03:16:37;;;;;;;45.00;26.23;;;2.80;95.60;;;;;;6187373;23;20055;-65
2021/03/01 03:19:04;;;;;;;45.95;26.27;;;2.80;95.70;;;;;;6187260;23;20005;-67
2021/03/01 03:21:31;;;;;;;49.25;26.90;;;2.70;95.60;;;;;;6187001;23;20495;-78
2021/03/01 03:23:57;;;;;;;51.53;26.88;;;2.70;95.50;;;;;;6187140;23;20009;-78
2021/03/01 03:26:23;;;;;;;44.13;25.52;;;2.80;95.40;;;;;;6186836;23;20055;-79
2021/03/01 03:28:49;;;;;;;48.63;26.00;;;2.90;95.00;;;;;;6187384;23;20001;-67
2021/03/01 03:31:15;;;;;;;45.40;26.85;;;2.80;95.00;;;;;;6187052;23;19997;-67
2021/03/01 03:33:43;;;;;;;43.15;24.98;;;2.70;95.40;;;;;;6186978;23;20008;-67
2021/03/01 03:36:12;;;;;;;43.22;23.27;;;2.70;95.40;;;;;;6187173;23;20328;-79
2021/03/01 03:38:50;;;;;;;40.53;24.58;;;2.70;95.40;;;;;;6187224;23;20005;-67
2021/03/01 03:41:16;;;;;;;57.90;35.80;;;2.70;95.60;;;;;;6186857;23;20005;-79
2021/03/01 03:43:44;;;;;;;71.57;38.67;;;2.60;95.80;;;;;;6186942;23;20381;-77
2021/03/01 03:46:12;;;;;;;59.03;32.78;;;2.70;95.60;;;;;;6186837;23;20005;-78
2021/03/01 03:48:40;;;;;;;40.60;24.42;;;2.80;95.20;;;;;;6186753;23;20416;-77
2021/03/01 03:51:09;;;;;;;42.78;25.50;;;2.90;94.80;;;;;;6187072;23;20016;-68
2021/03/01 03:53:43;;;;;;;50.83;31.75;;;3.00;94.60;;;;;;6186691;23;20008;-76
2021/03/01 03:56:10;;;;;;;51.72;35.53;;;3.00;94.50;;;;;;6186664;23;20097;-78
2021/03/01 03:58:42;;;;;;;50.42;33.53;;;3.00;94.50;;;;;;6187194;23;20359;-77
2021/03/01 04:01:11;;;;;;;44.90;29.50;;;3.00;94.40;;;;;;6186670;23;20324;-76
2021/03/01 04:03:40;;;;;;;39.17;25.80;;;3.00;94.70;;;;;;6186805;23;20005;-78
2021/03/01 04:06:07;;;;;;;39.28;25.30;;;3.00;94.50;;;;;;6186373;23;20013;-78
2021/03/01 04:08:33;;;;;;;36.42;24.58;;;3.00;94.30;;;;;;6186749;23;20035;-69
2021/03/01 04:11:00;;;;;;;37.47;22.85;;;3.10;94.40;;;;;;6186759;23;20005;-68
2021/03/01 04:13:28;;;;;;;36.53;22.75;;;3.10;94.30;;;;;;6186921;23;19997;-77
2021/03/01 04:15:55;;;;;;;44.28;23.80;;;3.10;94.40;;;;;;6187166;23;20033;-68
2021/03/01 04:18:34;;;;;;;62.78;35.58;;;3.10;94.30;;;;;;6186375;23;20374;-69
2021/03/01 04:21:03;;;;;;;56.08;32.70;;;2.90;94.80;;;;;;6186414;23;20005;-69
2021/03/01 04:23:31;;;;;;;43.33;23.90;;;2.90;94.70;;;;;;6159976;23;20008;-66
2021/03/01 04:25:58;;;;;;;48.83;28.88;;;3.00;94.80;;;;;;6186605;23;20551;-67
2021/03/01 04:28:25;;;;;;;72.35;42.95;;;2.90;94.80;;;;;;6186264;23;20089;-66
2021/03/01 04:30:51;;;;;;;53.22;30.75;;;3.00;94.90;;;;;;6186343;23;20005;-74
2021/03/01 04:33:18;;;;;;;52.45;30.95;;;3.00;94.60;;;;;;6186367;23;20083;-76
2021/03/01 04:35:48;;;;;;;69.13;38.08;;;3.00;94.70;;;;;;6159905;23;20005;-77
2021/03/01 04:38:14;;;;;;;48.22;29.08;;;3.00;95.00;;;;;;6186755;23;20135;-70
2021/03/01 04:40:40;;;;;;;51.85;33.58;;;3.10;94.80;;;;;;6159920;23;20053;-67
2021/03/01 04:43:10;;;;;;;52.90;32.08;;;3.10;94.90;;;;;;6186235;23;20048;-67
2021/03/01 04:45:38;;;;;;;68.53;32.58;;;2.90;95.20;;;;;;6186252;23;20001;-66
2021/03/01 04:48:07;;;;;;;76.05;34.88;;;2.80;95.50;;;;;;6186316;23;19998;-70
2021/03/01 04:50:33;;;;;;;82.57;35.75;;;2.70;95.70;;;;;;6186137;23;20072;-75
2021/03/01 04:53:00;;;;;;;59.95;30.83;;;;;;;;;;6186160;23;20001;-76
2021/03/01 04:55:27;;;;;;;48.05;27.10;;;2.40;95.90;;;;;;6159857;23;20454;-72
2021/03/01 04:57:55;;;;;;;41.88;25.90;;;2.40;96.30;;;;;;6186296;23;20001;-76
2021/03/01 05:00:24;;;;;;;38.47;24.05;;;2.50;96.40;;;;;;6159928;23;20032;-75
2021/03/01 05:02:50;;;;;;;41.75;23.92;;;2.40;96.30;;;;;;6186281;23;20001;-66
2021/03/01 05:05:17;;;;;;;39.25;23.80;;;2.50;96.30;;;;;;6186518;23;20005;-76
2021/03/01 05:07:44;;;;;;;37.60;24.80;;;2.40;96.30;;;;;;6185577;23;20108;-76
2021/03/01 05:10:12;;;;;;;37.85;22.27;;;2.30;96.50;;;;;;6185966;23;20005;-77
2021/03/01 05:12:38;;;;;;;39.30;22.98;;;2.20;96.80;;;;;;6186060;23;20008;-76
2021/03/01 05:15:05;;;;;;;34.42;21.15;;;2.10;96.90;;;;;;6186028;23;20444;-75
2021/03/01 05:17:31;;;;;;;41.80;25.70;;;2.20;97.10;;;;;;6185977;23;20041;-79
2021/03/01 05:19:57;;;;;;;40.75;26.42;;;2.20;97.10;;;;;;6186425;23;20048;-71
2021/03/01 05:22:23;;;;;;;39.25;26.58;;;2.20;97.10;;;;;;6186644;23;20005;-67
2021/03/01 05:24:49;;;;;;;38.35;25.83;;;2.20;97.00;;;;;;6185876;23;20037;-73
2021/03/01 05:27:15;;;;;;;54.65;29.98;;;2.30;97.00;;;;;;6186345;23;20409;-67
2021/03/01 05:29:41;;;;;;;47.55;27.05;;;2.20;97.00;;;;;;6159808;23;20096;-67
2021/03/01 05:32:07;;;;;;;65.88;35.25;;;2.20;97.00;;;;;;6188018;23;20447;-67
2021/03/01 05:34:33;;;;;;;57.20;35.22;;;2.20;97.00;;;;;;6187996;23;20023;-77
2021/03/01 05:36:59;;;;;;;55.08;35.38;;;2.20;97.00;;;;;;6188272;23;20005;-77
2021/03/01 05:39:25;;;;;;;62.63;39.00;;;2.40;96.60;;;;;;6188415;23;20068;-67
2021/03/01 05:41:53;;;;;;;76.95;47.92;;;2.50;96.30;;;;;;6161394;23;20032;-79
2021/03/01 05:44:19;;;;;;;84.88;56.35;;;2.40;96.50;;;;;;6187916;23;20012;-68
2021/03/01 05:46:48;;;;;;;82.00;52.60;;;2.40;96.70;;;;;;6188090;23;20140;-75
2021/03/01 05:49:15;;;;;;;69.22;45.03;;;2.40;96.80;;;;;;6187941;23;20012;-69
2021/03/01 05:51:48;;;;;;;80.03;47.38;;;2.50;96.70;;;;;;6187898;23;20008;-70
2021/03/01 05:54:18;;;;;;;63.05;37.25;;;2.60;96.60;;;;;;6188281;23;20005;-74
2021/03/01 05:56:46;;;;;;;93.13;49.78;;;2.70;96.20;;;;;;6188089;23;20005;-68
2021/03/01 05:59:12;;;;;;;87.32;45.50;;;2.80;96.00;;;;;;6187741;23;20040;-68
2021/03/01 06:01:39;;;;;;;71.13;39.08;;;2.70;96.20;;;;;;6187581;23;20018;-75
2021/03/01 06:04:06;;;;;;;104.55;60.28;;;2.70;96.40;;;;;;6187971;23;20012;-78
2021/03/01 06:06:32;;;;;;;115.30;72.60;;;2.60;96.50;;;;;;6187631;23;20040;-72
2021/03/01 06:08:58;;;;;;;92.93;51.25;;;2.70;96.50;;;;;;6187915;23;20063;-77
2021/03/01 06:11:24;;;;;;;308.98;133.52;;;2.70;96.60;;;;;;6187712;23;20032;-77
2021/03/01 06:13:50;;;;;;;158.73;77.40;;;2.80;96.50;;;;;;6187630;23;20003;-67
2021/03/01 06:16:17;;;;;;;98.15;53.85;;;2.90;96.30;;;;;;6187563;23;20029;-67
2021/03/01 06:18:44;;;;;;;57.78;33.10;;;3.00;96.30;;;;;;6188008;23;20040;-67
2021/03/01 06:21:13;;;;;;;55.47;31.88;;;3.00;96.10;;;;;;6187872;23;20004;-72
2021/03/01 06:23:41;;;;;;;45.95;29.02;;;3.10;96.30;;;;;;6188109;23;20084;-67
2021/03/01 06:26:24;;;;;;;75.68;43.97;;;3.20;96.00;;;;;;6161349;23;20005;-67
2021/03/01 06:28:53;;;;;;;70.72;36.78;;;3.30;96.00;;;;;;6188085;23;20383;-77
2021/03/01 06:31:41;;;;;;;58.53;30.95;;;3.30;95.90;;;;;;6187677;23;20008;-77
2021/03/01 06:34:30;;;;;;;43.30;25.55;;;3.40;95.90;;;;;;6161140;23;20027;-76
2021/03/01 06:37:00;;;;;;;56.97;31.02;;;3.60;95.70;;;;;;6187410;23;20420;-67
2021/03/01 06:39:43;;;;;;;83.28;39.95;;;3.70;95.70;;;;;;6187882;23;20009;-74
2021/03/01 06:42:15;;;;;;;69.30;33.00;;;3.80;95.30;;;;;;6187337;23;20008;-73
2021/03/01 06:44:47;;;;;;;70.93;32.17;;;3.80;95.30;;;;;;6187528;23;20008;-77
2021/03/01 06:47:14;;;;;;;52.00;25.63;;;4.00;95.20;;;;;;6187490;23;20005;-69
2021/03/01 06:49:42;;;;;;;50.42;25.98;;;4.00;94.70;;;;;;6160838;23;20418;-70
2021/03/01 06:52:08;;;;;;;76.80;34.95;;;4.10;94.60;;;;;;6187175;23;20005;-67
2021/03/01 06:54:35;;;;;;;80.90;35.97;;;4.30;94.60;;;;;;6187233;23;20056;-66
2021/03/01 06:57:00;;;;;;;100.43;39.65;;;4.40;94.30;;;;;;6186906;23;20012;-73
2021/03/01 06:59:27;;;;;;;67.63;31.85;;;4.40;94.20;;;;;;6187026;23;20009;-74
2021/03/01 07:01:59;;;;;;;100.13;42.65;;;4.60;94.00;;;;;;6187240;23;20025;-66
2021/03/01 07:04:27;;;;;;;64.88;30.98;;;4.60;93.90;;;;;;6186683;23;20084;-66
2021/03/01 07:06:55;;;;;;;70.90;35.38;;;4.70;93.80;;;;;;6186282;23;20021;-67
2021/03/01 07:09:34;;;;;;;82.20;40.38;;;4.80;93.50;;;;;;6186999;23;20001;-66
2021/03/01 07:12:00;;;;;;;75.65;38.75;;;4.90;93.80;;;;;;6186472;23;20490;-65
2021/03/01 07:14:27;;;;;;;80.13;38.28;;;5.00;93.30;;;;;;6186461;23;20001;-66
2021/03/01 07:16:55;;;;;;;77.45;36.13;;;5.10;93.40;;;;;;6186364;23;20012;-65
2021/03/01 07:19:32;;;;;;;53.22;27.13;;;5.20;93.00;;;;;;6186545;23;20066;-66
2021/03/01 07:22:00;;;;;;;61.47;31.17;;;5.20;93.00;;;;;;6187411;23;20008;-75
2021/03/01 07:24:28;;;;;;;70.03;37.30;;;5.40;92.90;;;;;;6186999;23;20001;-70
2021/03/01 07:27:00;;;;;;;67.70;38.08;;;5.50;92.80;;;;;;6187010;23;20032;-68
2021/03/01 07:29:30;;;;;;;41.05;26.17;;;5.60;92.30;;;;;;6186850;23;20012;-66
2021/03/01 07:32:05;;;;;;;43.97;26.45;;;5.50;92.30;;;;;;6186111;23;20005;-65
2021/03/01 07:34:32;;;;;;;41.83;26.92;;;5.60;92.50;;;;;;6183913;23;20064;-66
2021/03/01 07:36:59;;;;;;;38.65;24.88;;;5.70;92.50;;;;;;6185613;23;20011;-69
2021/03/01 07:39:26;;;;;;;43.50;26.52;;;5.70;92.00;;;;;;6186700;23;20437;-74
2021/03/01 07:41:55;;;;;;;51.53;34.28;;;5.80;92.00;;;;;;6187522;23;20004;-74
2021/03/01 07:44:39;;;;;;;45.40;29.98;;;6.00;91.90;;;;;;6186763;23;20005;-65
2021/03/01 07:47:06;;;;;;;68.72;40.65;;;6.10;91.90;;;;;;6187278;23;19997;-65
2021/03/01 07:49:48;;;;;;;127.97;73.35;;;6.30;91.40;;;;;;6186641;23;20012;-75
2021/03/01 07:52:20;;;;;;;91.78;68.78;;;6.40;91.50;;;;;;6186510;23;20016;-74
2021/03/01 07:54:50;;;;;;;37.50;25.02;;;6.50;90.90;;;;;;6159865;23;20432;-68
2021/03/01 07:57:17;;;;;;;36.60;24.90;;;6.50;90.90;;;;;;6186853;23;20001;-74
2021/03/01 07:59:43;;;;;;;34.67;22.83;;;6.60;91.10;;;;;;6159657;23;20009;-76
2021/03/01 08:02:14;;;;;;;33.10;19.95;;;6.90;90.60;;;;;;6186561;23;20005;-75
2021/03/01 08:04:40;;;;;;;28.48;19.38;;;7.10;90.40;;;;;;6160352;23;20335;-75
2021/03/01 08:07:07;;;;;;;34.00;23.63;;;7.00;89.60;;;;;;6186386;23;20087;-74
2021/03/01 08:09:51;;;;;;;45.72;29.80;;;7.20;90.20;;;;;;6186518;23;20464;-74
2021/03/01 08:12:29;;;;;;;32.00;21.05;;;7.40;89.70;;;;;;6186461;23;20326;-73
2021/03/01 08:15:00;;;;;;;28.58;18.83;;;7.50;88.40;;;;;;6186356;23;20080;-71
2021/03/01 08:17:26;;;;;;;29.45;20.13;;;7.50;88.40;;;;;;6186684;23;20051;-73
2021/03/01 08:19:56;;;;;;;21.45;14.50;;;7.80;87.60;;;;;;6186811;23;20005;-70
2021/03/01 08:22:23;;;;;;;34.70;20.85;;;7.80;85.20;;;;;;6186408;23;20005;-73
2021/03/01 08:24:57;;;;;;;28.65;19.27;;;7.90;84.70;;;;;;5071391;27;20410;-68
2021/03/01 08:27:25;;;;;;;22.42;14.65;;;7.90;85.40;;;;;;5071154;28;20059;-75
2021/03/01 08:30:23;;;;;;;40.10;31.45;;;8.10;84.80;;;;;;5071003;28;20052;-68
2021/03/01 08:33:07;;;;;;;30.05;18.45;;;8.30;85.90;;;;;;5071374;28;20009;-68
2021/03/01 08:35:34;;;;;;;31.40;19.42;;;8.40;83.90;;;;;;5071415;28;20028;-67
2021/03/01 08:38:00;;;;;;;29.70;20.38;;;8.40;83.00;;;;;;5069884;28;20099;-75
2021/03/01 08:40:26;;;;;;;27.98;19.40;;;8.40;83.30;;;;;;5070889;28;20024;-76
2021/03/01 08:42:55;;;;;;;26.10;17.02;;;8.70;83.20;;;;;;5069396;28;20024;-76
2021/03/01 08:45:37;;;;;;;25.00;16.13;;;8.70;80.60;;;;;;5071004;28;20032;-76
2021/03/01 08:48:18;;;;;;;30.40;20.85;;;8.80;79.20;;;;;;5070898;28;20414;-66
2021/03/01 08:50:46;;;;;;;27.75;18.85;;;8.90;79.30;;;;;;5069557;28;20060;-73
2021/03/01 08:53:20;;;;;;;29.35;20.00;;;9.10;79.40;;;;;;5070429;28;20025;-74
2021/03/01 08:55:46;;;;;;;45.60;26.63;;;9.00;79.60;;;;;;5070844;28;20021;-73
2021/03/01 08:58:13;;;;;;;39.90;23.60;;;9.20;79.40;;;;;;5070604;28;20060;-78
2021/03/01 09:00:59;;;;;;;41.53;26.20;;;9.30;78.40;;;;;;5070360;28;20021;-66
2021/03/01 09:03:29;;;;;;;34.78;21.45;;;9.20;77.80;;;;;;5070248;28;20479;-74
2021/03/01 09:06:04;;;;;;;28.42;19.50;;;9.30;78.00;;;;;;5069803;28;20079;-73
2021/03/01 09:08:38;;;;;;;28.20;17.30;;;9.50;77.80;;;;;;5070197;28;20060;-65
2021/03/01 09:11:13;;;;;;;28.58;17.55;;;9.70;78.90;;;;;;5070423;28;20560;-66
2021/03/01 09:13:39;;;;;;;26.85;17.90;;;9.60;76.10;;;;;;5070332;28;20025;-74
2021/03/01 09:16:27;;;;;;;27.35;17.27;;;9.90;75.80;;;;;;5070085;28;20040;-75
2021/03/01 09:19:02;;;;;;;22.55;14.80;;;10.10;74.30;;;;;;5070504;28;20529;-73
2021/03/01 09:21:29;;;;;;;27.92;16.15;;;10.50;74.10;;;;;;5070177;28;20029;-69
2021/03/01 09:23:57;;;;;;;32.45;20.67;;;10.40;72.10;;;;;;5068167;28;20063;-74
2021/03/01 09:26:40;;;;;;;39.13;24.55;;;10.30;72.80;;;;;;5070239;28;20044;-65
2021/03/01 09:29:10;;;;;;;23.13;15.73;;;10.30;73.00;;;;;;5069699;28;20479;-68
2021/03/01 09:31:56;;;;;;;26.55;15.63;;;10.10;72.40;;;;;;5069732;28;20486;-70
2021/03/01 09:34:28;;;;;;;25.98;16.55;;;10.40;74.20;;;;;;5066578;28;20460;-66
2021/03/01 09:36:54;;;;;;;20.45;14.90;;;10.80;70.70;;;;;;5054859;28;20029;-69
2021/03/01 09:39:22;;;;;;;21.20;15.20;;;11.00;69.90;;;;;;5054797;28;20024;-65
2021/03/01 09:41:49;;;;;;;20.92;15.50;;;11.10;69.70;;;;;;5055142;28;20028;-68
2021/03/01 09:44:26;;;;;;;21.25;14.68;;;11.00;68.30;;;;;;5056216;28;20044;-67
2021/03/01 09:46:54;;;;;;;21.88;15.07;;;11.20;70.40;;;;;;5054557;28;20105;-67
2021/03/01 09:49:20;;;;;;;29.58;20.58;;;11.50;69.90;;;;;;5056212;28;20028;-68
2021/03/01 09:51:46;;;;;;;30.55;22.08;;;11.80;68.20;;;;;;5056402;28;20051;-79
2021/03/01 09:54:13;;;;;;;35.45;22.77;;;11.90;67.30;;;;;;5056446;28;20024;-72
2021/03/01 09:56:47;;;;;;;26.77;19.45;;;12.10;66.50;;;;;;5055349;28;20464;-65
2021/03/01 09:59:28;;;;;;;;;;;12.20;64.50;;;;;;5056563;28;20406;-78
2021/03/01 10:02:06;;;;;;;19.23;12.60;;;12.10;62.10;;;;;;5054532;28;20358;-66
2021/03/01 10:04:32;;;;;;;21.02;15.25;;;12.40;63.80;;;;;;5055587;28;20104;-75
2021/03/01 10:07:18;;;;;;;21.42;14.18;;;12.40;63.30;;;;;;5055555;28;20025;-69
2021/03/01 10:09:45;;;;;;;20.17;13.88;;;12.80;63.20;;;;;;5055844;28;20108;-76
2021/03/01 10:12:12;;;;;;;17.33;10.40;;;12.60;60.60;;;;;;5055901;28;20067;-68
2021/03/01 10:14:39;;;;;;;23.60;15.77;;;12.90;61.90;;;;;;5055763;28;20035;-75
2021/03/01 10:17:16;;;;;;;23.08;17.08;;;13.10;60.70;;;;;;5055888;28;20096;-65
2021/03/01 10:19:42;;;;;;;18.27;14.27;;;12.60;59.10;;;;;;5055658;28;20017;-73
2021/03/01 10:22:08;;;;;;;20.95;13.60;;;12.50;60.00;;;;;;5055659;28;20475;-69
2021/03/01 10:24:49;;;;;;;42.17;22.98;;;12.90;60.80;;;;;;5055447;28;20089;-77
2021/03/01 10:27:16;;;;;;;50.95;26.73;;;12.70;58.60;;;;;;5056029;28;20367;-77
2021/03/01 10:29:44;;;;;;;16.63;10.98;;;13.50;60.00;;;;;;5055582;28;20032;-71
2021/03/01 10:32:25;;;;;;;15.98;11.50;;;13.60;58.90;;;;;;5055416;28;20545;-68
2021/03/01 10:34:52;;;;;;;16.88;10.57;;;13.80;57.90;;;;;;5055719;28;20025;-66
2021/03/01 10:37:22;;;;;;;14.57;10.15;;;14.40;58.00;;;;;;5055334;28;20429;-66
2021/03/01 10:39:49;;;;;;;13.38;9.25;;;14.60;56.20;;;;;;5055415;28;20033;-76
2021/03/01 10:42:17;;;;;;;15.48;10.50;;;14.70;57.20;;;;;;5055341;28;20021;-68
2021/03/01 10:45:00;;;;;;;14.43;10.60;;;14.40;55.90;;;;;;5055096;28;20025;-76
2021/03/01 10:47:30;;;;;;;13.52;9.77;;;14.50;55.80;;;;;;5054631;28;20061;-76
2021/03/01 10:49:59;;;;;;;16.02;10.68;;;14.70;55.00;;;;;;5055139;28;20104;-76
2021/03/01 10:52:26;;;;;;;18.05;12.23;;;14.90;56.10;;;;;;5054880;28;20052;-75
2021/03/01 10:54:54;;;;;;;25.90;15.77;;;14.10;55.00;;;;;;5055167;28;20028;-76
2021/03/01 10:57:22;;;;;;;70.85;40.13;;;14.10;57.30;;;;;;5055039;28;20078;-74
2021/03/01 10:59:51;;;;;;;32.83;19.52;;;13.90;56.20;;;;;;5053341;28;20033;-66
2021/03/01 11:02:18;;;;;;;168.77;90.13;;;13.90;55.50;;;;;;5053433;28;20029;-77
2021/03/01 11:04:45;;;;;;;54.10;33.85;;;14.20;54.80;;;;;;5054672;28;20167;-74
2021/03/01 11:07:11;;;;;;;38.20;27.25;;;14.70;58.00;;;;;;5054549;28;20385;-75
2021/03/01 11:09:37;;;;;;;22.23;15.05;;;14.50;55.10;;;;;;5054942;28;20021;-76
2021/03/01 11:12:04;;;;;;;16.75;12.15;;;14.70;56.00;;;;;;5054490;28;20021;-67
2021/03/01 11:14:30;;;;;;;57.58;44.67;;;15.20;54.50;;;;;;5054503;28;20028;-75
2021/03/01 11:16:57;;;;;;;43.30;29.63;;;14.90;55.10;;;;;;5054734;28;20055;-76
2021/03/01 11:19:24;;;;;;;54.65;29.77;;;15.40;55.70;;;;;;5054158;28;20029;-66
2021/03/01 11:21:50;;;;;;;26.73;15.30;;;15.10;53.20;;;;;;5054320;28;20025;-69
2021/03/01 11:24:20;;;;;;;26.63;16.33;;;14.90;56.20;;;;;;5054020;28;20087;-77
2021/03/01 11:26:46;;;;;;;21.23;13.32;;;14.70;53.60;;;;;;5054268;28;20108;-67
2021/03/01 11:29:12;;;;;;;63.63;38.20;;;14.60;54.30;;;;;;5053692;28;20422;-67
2021/03/01 11:31:38;;;;;;;18.73;13.50;;;15.10;54.20;;;;;;5054226;28;20032;-72
2021/03/01 11:34:06;;;;;;;35.10;21.67;;;14.50;53.70;;;;;;5054082;28;20029;-77
2021/03/01 11:36:36;;;;;;;77.05;48.03;;;14.70;56.30;;;;;;5054287;28;20082;-77
2021/03/01 11:39:03;;;;;;;36.22;24.38;;;14.80;54.10;;;;;;5054488;28;20020;-77
2021/03/01 11:41:29;;;;;;;20.23;14.02;;;15.10;54.20;;;;;;5053084;28;20546;-67
2021/03/01 11:43:56;;;;;;;45.42;26.17;;;15.80;54.70;;;;;;5054303;28;20436;-78
2021/03/01 11:46:22;;;;;;;128.90;66.68;;;15.30;53.90;;;;;;5053862;28;20017;-67
2021/03/01 11:48:48;;;;;;;31.88;19.63;;;15.30;53.70;;;;;;5053878;28;20082;-71
2021/03/01 11:51:17;;;;;;;71.95;38.95;;;15.40;54.70;;;;;;5053816;28;20025;-65
2021/03/01 11:53:44;;;;;;;73.68;39.35;;;15.20;52.90;;;;;;5053979;28;20013;-67
2021/03/01 11:56:11;;;;;;;32.47;19.77;;;15.40;52.00;;;;;;5054089;28;20112;-67
2021/03/01 11:58:38;;;;;;;63.35;35.42;;;15.60;52.60;;;;;;5053600;28;20049;-67
2021/03/01 12:01:05;;;;;;;23.08;14.88;;;15.70;53.80;;;;;;5053654;28;20017;-77
2021/03/01 12:03:31;;;;;;;26.77;17.58;;;15.90;53.00;;;;;;5053615;28;20029;-76
2021/03/01 12:05:57;;;;;;;18.40;13.32;;;15.10;51.50;;;;;;5053623;28;20029;-76
2021/03/01 12:08:25;;;;;;;17.38;12.45;;;15.20;52.40;;;;;;5054058;28;20021;-69
2021/03/01 12:10:51;;;;;;;19.95;12.43;;;15.10;51.90;;;;;;5053703;28;20035;-66
2021/03/01 12:13:17;;;;;;;40.42;23.75;;;15.20;53.30;;;;;;5053779;28;20028;-77
2021/03/01 12:15:58;;;;;;;23.67;16.73;;;14.90;52.40;;;;;;5054085;28;20025;-80
2021/03/01 12:18:24;;;;;;;33.78;22.67;;;15.10;53.00;;;;;;5053775;28;20029;-66
2021/03/01 12:20:50;;;;;;;20.98;13.23;;;15.50;54.40;;;;;;5053927;28;20017;-68
2021/03/01 12:23:16;;;;;;;17.38;12.55;;;15.80;54.00;;;;;;5052482;28;20041;-71
2021/03/01 12:25:42;;;;;;;19.00;13.90;;;16.10;53.00;;;;;;5051951;28;20016;-66
2021/03/01 12:28:07;;;;;;;20.75;14.48;;;15.90;51.00;;;;;;5049097;28;20065;-67
2021/03/01 12:30:33;;;;;;;31.85;20.77;;;15.90;51.10;;;;;;5051554;28;20094;-66
2021/03/01 12:33:00;;;;;;;42.05;27.65;;;15.30;52.70;;;;;;5051717;28;20024;-67
2021/03/01 12:35:26;;;;;;;25.60;17.48;;;15.80;52.50;;;;;;5051835;28;20017;-66
2021/03/01 12:37:52;;;;;;;44.88;27.55;;;15.40;52.10;;;;;;5051830;28;20111;-66
2021/03/01 12:40:18;;;;;;;30.30;18.92;;;15.10;52.60;;;;;;5051725;28;20021;-67
2021/03/01 12:42:45;;;;;;;33.90;18.23;;;15.40;52.90;;;;;;5051593;28;20539;-69